sensor_id;sensor_type;location;lat;lon;timestamp;P1;durP1;ratioP1;P2;durP2;ratioP2
7527;SDS011;3805;49.006;8.514;2023-05-19T00:01:37;8.00;;;3.57;;
7527;SDS011;3805;49.006;8.514;2023-05-19T00:04:31;9.00;;;3.90;;
7527;SDS011;3805;49.006;8.514;2023-05-19T00:07:21;6.10;;;3.80;;
7527;SDS011;3805;49.006;8.514;2023-05-19T00:10:12;5.10;;;3.83;;
7527;SDS011;3805;49.006;8.514;2023-05-19T00:13:02;5.73;;;3.70;;
7527;SDS011;3805;49.006;8.514;2023-05-19T00:15:51;5.70;;;3.43;;
7527;SDS011;3805;49.006;8.514;2023-05-19T00:18:40;4.03;;;3.57;;
7527;SDS011;3805;49.006;8.514;2023-05-19T00:21:30;5.43;;;4.00;;
7527;SDS011;3805;49.006;8.514;2023-05-19T00:24:19;5.03;;;3.70;;
7527;SDS011;3805;49.006;8.514;2023-05-19T00:27:08;9.83;;;3.70;;
7527;SDS011;3805;49.006;8.514;2023-05-19T00:29:57;5.60;;;3.73;;
7527;SDS011;3805;49.006;8.514;2023-05-19T00:32:45;7.30;;;4.70;;
7527;SDS011;3805;49.006;8.514;2023-05-19T00:35:34;4.67;;;3.30;;
7527;SDS011;3805;49.006;8.514;2023-05-19T00:38:24;4.43;;;3.33;;
7527;SDS011;3805;49.006;8.514;2023-05-19T00:41:12;5.20;;;3.43;;
7527;SDS011;3805;49.006;8.514;2023-05-19T00:44:01;4.00;;;3.60;;
7527;SDS011;3805;49.006;8.514;2023-05-19T00:46:49;3.67;;;3.37;;
7527;SDS011;3805;49.006;8.514;2023-05-19T00:49:38;5.33;;;4.20;;
7527;SDS011;3805;49.006;8.514;2023-05-19T00:52:26;4.50;;;3.80;;
7527;SDS011;3805;49.006;8.514;2023-05-19T00:55:16;6.67;;;4.47;;
7527;SDS011;3805;49.006;8.514;2023-05-19T00:58:05;6.17;;;3.97;;
7527;SDS011;3805;49.006;8.514;2023-05-19T01:00:55;7.83;;;4.30;;
7527;SDS011;3805;49.006;8.514;2023-05-19T01:03:49;5.80;;;4.23;;
7527;SDS011;3805;49.006;8.514;2023-05-19T01:06:37;6.73;;;4.07;;
7527;SDS011;3805;49.006;8.514;2023-05-19T01:09:26;5.30;;;4.20;;
7527;SDS011;3805;49.006;8.514;2023-05-19T01:12:16;4.87;;;3.60;;
7527;SDS011;3805;49.006;8.514;2023-05-19T01:15:05;6.53;;;3.90;;
7527;SDS011;3805;49.006;8.514;2023-05-19T01:17:58;6.33;;;3.73;;
7527;SDS011;3805;49.006;8.514;2023-05-19T01:20:55;4.43;;;4.03;;
7527;SDS011;3805;49.006;8.514;2023-05-19T01:23:51;4.63;;;4.13;;
7527;SDS011;3805;49.006;8.514;2023-05-19T01:26:48;7.63;;;4.13;;
7527;SDS011;3805;49.006;8.514;2023-05-19T01:33:05;6.57;;;4.20;;
7527;SDS011;3805;49.006;8.514;2023-05-19T01:35:54;8.00;;;4.13;;
7527;SDS011;3805;49.006;8.514;2023-05-19T01:38:43;5.70;;;4.10;;
7527;SDS011;3805;49.006;8.514;2023-05-19T01:41:33;4.20;;;3.80;;
7527;SDS011;3805;49.006;8.514;2023-05-19T01:44:22;9.10;;;3.70;;
7527;SDS011;3805;49.006;8.514;2023-05-19T01:47:13;4.30;;;3.73;;
7527;SDS011;3805;49.006;8.514;2023-05-19T01:50:04;5.03;;;4.33;;
7527;SDS011;3805;49.006;8.514;2023-05-19T01:52:53;4.47;;;4.03;;
7527;SDS011;3805;49.006;8.514;2023-05-19T01:55:43;4.80;;;3.80;;
7527;SDS011;3805;49.006;8.514;2023-05-19T01:58:36;4.47;;;4.07;;
7527;SDS011;3805;49.006;8.514;2023-05-19T02:01:29;5.37;;;4.10;;
7527;SDS011;3805;49.006;8.514;2023-05-19T02:04:23;5.80;;;3.10;;
7527;SDS011;3805;49.006;8.514;2023-05-19T02:07:20;5.40;;;3.93;;
7527;SDS011;3805;49.006;8.514;2023-05-19T02:10:13;6.67;;;4.40;;
7527;SDS011;3805;49.006;8.514;2023-05-19T02:13:06;4.30;;;3.90;;
7527;SDS011;3805;49.006;8.514;2023-05-19T02:15:59;4.43;;;4.03;;
7527;SDS011;3805;49.006;8.514;2023-05-19T02:18:51;4.73;;;4.30;;
7527;SDS011;3805;49.006;8.514;2023-05-19T02:21:40;4.77;;;4.10;;
7527;SDS011;3805;49.006;8.514;2023-05-19T02:24:30;5.50;;;4.20;;
7527;SDS011;3805;49.006;8.514;2023-05-19T02:27:19;4.97;;;4.57;;
7527;SDS011;3805;49.006;8.514;2023-05-19T02:30:08;6.70;;;4.23;;
7527;SDS011;3805;49.006;8.514;2023-05-19T02:32:57;5.97;;;4.83;;
7527;SDS011;3805;49.006;8.514;2023-05-19T02:35:46;7.03;;;4.70;;
7527;SDS011;3805;49.006;8.514;2023-05-19T02:38:34;4.77;;;4.37;;
7527;SDS011;3805;49.006;8.514;2023-05-19T02:41:25;5.00;;;4.50;;
7527;SDS011;3805;49.006;8.514;2023-05-19T02:44:13;4.27;;;3.87;;
7527;SDS011;3805;49.006;8.514;2023-05-19T02:47:02;6.10;;;4.37;;
7527;SDS011;3805;49.006;8.514;2023-05-19T02:49:51;4.60;;;4.30;;
7527;SDS011;3805;49.006;8.514;2023-05-19T02:52:39;7.30;;;4.23;;
7527;SDS011;3805;49.006;8.514;2023-05-19T02:55:28;5.57;;;4.20;;
7527;SDS011;3805;49.006;8.514;2023-05-19T02:58:18;6.20;;;4.33;;
7527;SDS011;3805;49.006;8.514;2023-05-19T03:01:07;4.20;;;3.67;;
7527;SDS011;3805;49.006;8.514;2023-05-19T03:03:55;4.53;;;4.03;;
7527;SDS011;3805;49.006;8.514;2023-05-19T03:06:44;6.33;;;4.27;;
7527;SDS011;3805;49.006;8.514;2023-05-19T03:09:32;4.47;;;4.07;;
7527;SDS011;3805;49.006;8.514;2023-05-19T03:12:21;5.30;;;4.80;;
7527;SDS011;3805;49.006;8.514;2023-05-19T03:15:11;4.50;;;3.93;;
7527;SDS011;3805;49.006;8.514;2023-05-19T03:18:01;6.00;;;4.60;;
7527;SDS011;3805;49.006;8.514;2023-05-19T03:20:49;4.37;;;3.97;;
7527;SDS011;3805;49.006;8.514;2023-05-19T03:23:39;4.30;;;4.00;;
7527;SDS011;3805;49.006;8.514;2023-05-19T03:26:28;4.40;;;4.00;;
7527;SDS011;3805;49.006;8.514;2023-05-19T03:29:16;6.50;;;4.80;;
7527;SDS011;3805;49.006;8.514;2023-05-19T03:32:06;6.13;;;5.07;;
7527;SDS011;3805;49.006;8.514;2023-05-19T03:34:55;5.20;;;4.70;;
7527;SDS011;3805;49.006;8.514;2023-05-19T03:37:44;5.33;;;4.23;;
7527;SDS011;3805;49.006;8.514;2023-05-19T03:40:32;11.07;;;4.80;;
7527;SDS011;3805;49.006;8.514;2023-05-19T03:43:21;5.20;;;4.63;;
7527;SDS011;3805;49.006;8.514;2023-05-19T03:46:09;5.50;;;5.00;;
7527;SDS011;3805;49.006;8.514;2023-05-19T03:48:59;5.33;;;4.30;;
7527;SDS011;3805;49.006;8.514;2023-05-19T03:51:48;5.87;;;4.40;;
7527;SDS011;3805;49.006;8.514;2023-05-19T03:54:37;7.20;;;4.53;;
7527;SDS011;3805;49.006;8.514;2023-05-19T03:57:25;5.30;;;4.80;;
7527;SDS011;3805;49.006;8.514;2023-05-19T04:00:15;6.57;;;5.20;;
7527;SDS011;3805;49.006;8.514;2023-05-19T04:03:04;7.57;;;4.93;;
7527;SDS011;3805;49.006;8.514;2023-05-19T04:05:57;5.83;;;4.53;;
7527;SDS011;3805;49.006;8.514;2023-05-19T04:08:46;4.97;;;4.47;;
7527;SDS011;3805;49.006;8.514;2023-05-19T04:11:34;6.53;;;4.70;;
7527;SDS011;3805;49.006;8.514;2023-05-19T04:14:23;6.97;;;5.00;;
7527;SDS011;3805;49.006;8.514;2023-05-19T04:17:11;7.03;;;5.40;;
7527;SDS011;3805;49.006;8.514;2023-05-19T04:20:00;5.53;;;4.97;;
7527;SDS011;3805;49.006;8.514;2023-05-19T04:22:50;6.23;;;5.63;;
7527;SDS011;3805;49.006;8.514;2023-05-19T04:25:38;9.03;;;5.17;;
7527;SDS011;3805;49.006;8.514;2023-05-19T04:28:27;6.63;;;5.53;;
7527;SDS011;3805;49.006;8.514;2023-05-19T04:31:16;4.80;;;4.50;;
7527;SDS011;3805;49.006;8.514;2023-05-19T04:34:07;5.93;;;5.10;;
7527;SDS011;3805;49.006;8.514;2023-05-19T04:36:56;5.53;;;5.03;;
7527;SDS011;3805;49.006;8.514;2023-05-19T04:39:46;5.20;;;4.80;;
7527;SDS011;3805;49.006;8.514;2023-05-19T04:42:35;5.83;;;5.23;;
7527;SDS011;3805;49.006;8.514;2023-05-19T04:45:23;5.93;;;5.00;;
7527;SDS011;3805;49.006;8.514;2023-05-19T04:48:12;6.20;;;4.87;;
7527;SDS011;3805;49.006;8.514;2023-05-19T04:51:01;5.63;;;4.93;;
7527;SDS011;3805;49.006;8.514;2023-05-19T04:53:49;5.60;;;5.00;;
7527;SDS011;3805;49.006;8.514;2023-05-19T04:56:39;5.20;;;4.70;;
7527;SDS011;3805;49.006;8.514;2023-05-19T04:59:29;5.27;;;4.80;;
7527;SDS011;3805;49.006;8.514;2023-05-19T05:02:18;5.67;;;5.07;;
7527;SDS011;3805;49.006;8.514;2023-05-19T05:05:07;9.37;;;4.80;;
7527;SDS011;3805;49.006;8.514;2023-05-19T05:07:56;5.80;;;5.30;;
7527;SDS011;3805;49.006;8.514;2023-05-19T05:10:45;5.97;;;5.47;;
7527;SDS011;3805;49.006;8.514;2023-05-19T05:13:36;8.23;;;5.30;;
7527;SDS011;3805;49.006;8.514;2023-05-19T05:16:25;6.67;;;5.10;;
7527;SDS011;3805;49.006;8.514;2023-05-19T05:19:14;5.47;;;4.77;;
7527;SDS011;3805;49.006;8.514;2023-05-19T05:22:03;4.90;;;4.40;;
7527;SDS011;3805;49.006;8.514;2023-05-19T05:24:52;7.97;;;5.33;;
7527;SDS011;3805;49.006;8.514;2023-05-19T05:27:41;5.83;;;5.33;;
7527;SDS011;3805;49.006;8.514;2023-05-19T05:30:31;5.03;;;4.53;;
7527;SDS011;3805;49.006;8.514;2023-05-19T05:33:20;5.37;;;4.70;;
7527;SDS011;3805;49.006;8.514;2023-05-19T05:36:11;5.80;;;4.80;;
7527;SDS011;3805;49.006;8.514;2023-05-19T05:38:59;5.07;;;4.67;;
7527;SDS011;3805;49.006;8.514;2023-05-19T05:41:48;4.53;;;3.90;;
7527;SDS011;3805;49.006;8.514;2023-05-19T05:44:37;6.57;;;4.47;;
7527;SDS011;3805;49.006;8.514;2023-05-19T05:47:27;4.30;;;3.93;;
7527;SDS011;3805;49.006;8.514;2023-05-19T05:50:16;7.20;;;4.30;;
7527;SDS011;3805;49.006;8.514;2023-05-19T05:53:05;4.40;;;3.83;;
7527;SDS011;3805;49.006;8.514;2023-05-19T05:55:55;5.73;;;3.90;;
7527;SDS011;3805;49.006;8.514;2023-05-19T05:58:44;5.07;;;3.93;;
7527;SDS011;3805;49.006;8.514;2023-05-19T06:01:32;3.80;;;3.50;;
7527;SDS011;3805;49.006;8.514;2023-05-19T06:04:23;4.40;;;4.00;;
7527;SDS011;3805;49.006;8.514;2023-05-19T06:07:12;4.33;;;3.20;;
7527;SDS011;3805;49.006;8.514;2023-05-19T06:10:01;6.57;;;3.57;;
7527;SDS011;3805;49.006;8.514;2023-05-19T06:12:50;5.33;;;3.90;;
7527;SDS011;3805;49.006;8.514;2023-05-19T06:15:38;5.07;;;3.30;;
7527;SDS011;3805;49.006;8.514;2023-05-19T06:18:27;7.17;;;3.73;;
7527;SDS011;3805;49.006;8.514;2023-05-19T06:21:17;3.73;;;3.20;;
7527;SDS011;3805;49.006;8.514;2023-05-19T06:24:05;8.60;;;4.10;;
7527;SDS011;3805;49.006;8.514;2023-05-19T06:26:54;4.33;;;3.70;;
7527;SDS011;3805;49.006;8.514;2023-05-19T06:29:42;5.77;;;3.97;;
7527;SDS011;3805;49.006;8.514;2023-05-19T06:32:31;4.27;;;3.87;;
7527;SDS011;3805;49.006;8.514;2023-05-19T06:35:20;4.47;;;3.67;;
7527;SDS011;3805;49.006;8.514;2023-05-19T06:38:10;5.50;;;3.33;;
7527;SDS011;3805;49.006;8.514;2023-05-19T06:40:58;6.23;;;3.33;;
7527;SDS011;3805;49.006;8.514;2023-05-19T06:43:47;4.20;;;3.80;;
7527;SDS011;3805;49.006;8.514;2023-05-19T06:46:35;7.30;;;3.93;;
7527;SDS011;3805;49.006;8.514;2023-05-19T06:49:24;4.07;;;3.60;;
7527;SDS011;3805;49.006;8.514;2023-05-19T06:52:15;8.40;;;4.00;;
7527;SDS011;3805;49.006;8.514;2023-05-19T06:55:06;6.20;;;4.13;;
7527;SDS011;3805;49.006;8.514;2023-05-19T06:57:55;5.03;;;3.50;;
7527;SDS011;3805;49.006;8.514;2023-05-19T07:00:43;5.03;;;4.03;;
7527;SDS011;3805;49.006;8.514;2023-05-19T07:03:32;4.57;;;3.23;;
7527;SDS011;3805;49.006;8.514;2023-05-19T07:06:21;4.33;;;3.60;;
7527;SDS011;3805;49.006;8.514;2023-05-19T07:09:09;3.53;;;3.23;;
7527;SDS011;3805;49.006;8.514;2023-05-19T07:11:59;6.63;;;4.13;;
7527;SDS011;3805;49.006;8.514;2023-05-19T07:14:48;5.57;;;3.60;;
7527;SDS011;3805;49.006;8.514;2023-05-19T07:17:37;4.13;;;3.57;;
7527;SDS011;3805;49.006;8.514;2023-05-19T07:20:25;4.30;;;3.87;;
7527;SDS011;3805;49.006;8.514;2023-05-19T07:23:14;5.97;;;3.73;;
7527;SDS011;3805;49.006;8.514;2023-05-19T07:26:03;7.50;;;3.67;;
7527;SDS011;3805;49.006;8.514;2023-05-19T07:28:53;6.60;;;3.63;;
7527;SDS011;3805;49.006;8.514;2023-05-19T07:31:42;5.47;;;3.50;;
7527;SDS011;3805;49.006;8.514;2023-05-19T07:34:31;5.53;;;3.60;;
7527;SDS011;3805;49.006;8.514;2023-05-19T07:37:19;7.43;;;4.20;;
7527;SDS011;3805;49.006;8.514;2023-05-19T07:40:08;5.30;;;3.60;;
7527;SDS011;3805;49.006;8.514;2023-05-19T07:42:57;4.17;;;2.97;;
7527;SDS011;3805;49.006;8.514;2023-05-19T07:45:47;4.00;;;3.60;;
7527;SDS011;3805;49.006;8.514;2023-05-19T07:48:35;6.10;;;3.63;;
7527;SDS011;3805;49.006;8.514;2023-05-19T07:51:24;6.47;;;3.40;;
7527;SDS011;3805;49.006;8.514;2023-05-19T07:54:12;4.70;;;3.53;;
7527;SDS011;3805;49.006;8.514;2023-05-19T07:57:01;4.90;;;3.33;;
7527;SDS011;3805;49.006;8.514;2023-05-19T07:59:50;5.20;;;3.60;;
7527;SDS011;3805;49.006;8.514;2023-05-19T08:02:40;4.33;;;3.40;;
7527;SDS011;3805;49.006;8.514;2023-05-19T08:05:28;4.73;;;3.47;;
7527;SDS011;3805;49.006;8.514;2023-05-19T08:08:17;7.83;;;3.80;;
7527;SDS011;3805;49.006;8.514;2023-05-19T08:11:06;9.77;;;3.57;;
7527;SDS011;3805;49.006;8.514;2023-05-19T08:13:54;4.43;;;3.93;;
7527;SDS011;3805;49.006;8.514;2023-05-19T08:16:43;5.23;;;3.73;;
7527;SDS011;3805;49.006;8.514;2023-05-19T08:19:33;7.60;;;4.90;;
7527;SDS011;3805;49.006;8.514;2023-05-19T08:22:22;7.40;;;3.50;;
7527;SDS011;3805;49.006;8.514;2023-05-19T08:25:11;6.30;;;3.90;;
7527;SDS011;3805;49.006;8.514;2023-05-19T08:27:59;7.27;;;3.57;;
7527;SDS011;3805;49.006;8.514;2023-05-19T08:30:48;6.67;;;3.60;;
7527;SDS011;3805;49.006;8.514;2023-05-19T08:33:37;4.43;;;3.53;;
7527;SDS011;3805;49.006;8.514;2023-05-19T08:36:27;6.17;;;4.07;;
7527;SDS011;3805;49.006;8.514;2023-05-19T08:39:16;4.50;;;4.10;;
7527;SDS011;3805;49.006;8.514;2023-05-19T08:42:10;3.53;;;3.07;;
7527;SDS011;3805;49.006;8.514;2023-05-19T08:44:58;7.83;;;3.73;;
7527;SDS011;3805;49.006;8.514;2023-05-19T08:47:47;9.57;;;4.73;;
7527;SDS011;3805;49.006;8.514;2023-05-19T08:50:38;5.13;;;4.00;;
7527;SDS011;3805;49.006;8.514;2023-05-19T08:53:30;5.83;;;4.00;;
7527;SDS011;3805;49.006;8.514;2023-05-19T08:56:23;6.10;;;4.33;;
7527;SDS011;3805;49.006;8.514;2023-05-19T08:59:12;5.13;;;3.60;;
7527;SDS011;3805;49.006;8.514;2023-05-19T09:02:01;6.37;;;3.80;;
7527;SDS011;3805;49.006;8.514;2023-05-19T09:04:50;6.93;;;3.80;;
7527;SDS011;3805;49.006;8.514;2023-05-19T09:07:40;5.83;;;4.07;;
7527;SDS011;3805;49.006;8.514;2023-05-19T09:10:30;3.70;;;3.00;;
7527;SDS011;3805;49.006;8.514;2023-05-19T09:13:19;6.63;;;3.37;;
7527;SDS011;3805;49.006;8.514;2023-05-19T09:16:07;5.57;;;4.10;;
7527;SDS011;3805;49.006;8.514;2023-05-19T09:18:56;5.43;;;3.40;;
7527;SDS011;3805;49.006;8.514;2023-05-19T09:21:49;8.63;;;3.77;;
7527;SDS011;3805;49.006;8.514;2023-05-19T09:24:46;4.43;;;4.03;;
7527;SDS011;3805;49.006;8.514;2023-05-19T09:27:36;9.90;;;3.63;;
7527;SDS011;3805;49.006;8.514;2023-05-19T09:30:25;4.40;;;3.57;;
7527;SDS011;3805;49.006;8.514;2023-05-19T09:33:15;4.87;;;3.60;;
7527;SDS011;3805;49.006;8.514;2023-05-19T09:36:05;5.03;;;3.23;;
7527;SDS011;3805;49.006;8.514;2023-05-19T09:38:54;6.93;;;3.27;;
7527;SDS011;3805;49.006;8.514;2023-05-19T09:41:43;5.17;;;3.13;;
7527;SDS011;3805;49.006;8.514;2023-05-19T09:44:33;7.80;;;3.90;;
7527;SDS011;3805;49.006;8.514;2023-05-19T09:47:23;4.80;;;3.73;;
7527;SDS011;3805;49.006;8.514;2023-05-19T09:50:11;5.70;;;3.87;;
7527;SDS011;3805;49.006;8.514;2023-05-19T09:53:00;4.73;;;4.23;;
7527;SDS011;3805;49.006;8.514;2023-05-19T09:55:49;4.20;;;3.67;;
7527;SDS011;3805;49.006;8.514;2023-05-19T09:58:42;4.67;;;3.33;;
7527;SDS011;3805;49.006;8.514;2023-05-19T10:01:32;5.67;;;3.60;;
7527;SDS011;3805;49.006;8.514;2023-05-19T10:04:22;6.67;;;3.40;;
7527;SDS011;3805;49.006;8.514;2023-05-19T10:07:12;7.10;;;4.10;;
7527;SDS011;3805;49.006;8.514;2023-05-19T10:10:02;6.20;;;4.03;;
7527;SDS011;3805;49.006;8.514;2023-05-19T10:12:50;9.43;;;4.10;;
7527;SDS011;3805;49.006;8.514;2023-05-19T10:15:39;7.63;;;3.37;;
7527;SDS011;3805;49.006;8.514;2023-05-19T10:18:45;4.40;;;3.60;;
7527;SDS011;3805;49.006;8.514;2023-05-19T10:21:34;3.40;;;2.93;;
7527;SDS011;3805;49.006;8.514;2023-05-19T10:24:23;4.43;;;3.63;;
7527;SDS011;3805;49.006;8.514;2023-05-19T10:27:12;4.60;;;3.97;;
7527;SDS011;3805;49.006;8.514;2023-05-19T10:30:05;5.73;;;3.57;;
7527;SDS011;3805;49.006;8.514;2023-05-19T10:32:59;9.87;;;4.27;;
7527;SDS011;3805;49.006;8.514;2023-05-19T10:35:58;5.50;;;3.47;;
7527;SDS011;3805;49.006;8.514;2023-05-19T10:38:55;3.70;;;3.40;;
7527;SDS011;3805;49.006;8.514;2023-05-19T10:41:52;6.70;;;3.53;;
7527;SDS011;3805;49.006;8.514;2023-05-19T10:44:51;5.30;;;3.60;;
7527;SDS011;3805;49.006;8.514;2023-05-19T10:47:43;8.73;;;4.10;;
7527;SDS011;3805;49.006;8.514;2023-05-19T10:50:34;4.07;;;3.10;;
7527;SDS011;3805;49.006;8.514;2023-05-19T10:53:29;6.03;;;3.30;;
7527;SDS011;3805;49.006;8.514;2023-05-19T10:56:27;3.13;;;2.90;;
7527;SDS011;3805;49.006;8.514;2023-05-19T10:59:31;4.47;;;3.40;;
7527;SDS011;3805;49.006;8.514;2023-05-19T11:02:36;6.63;;;3.53;;
7527;SDS011;3805;49.006;8.514;2023-05-19T11:05:27;4.20;;;3.40;;
7527;SDS011;3805;49.006;8.514;2023-05-19T11:08:18;3.43;;;3.00;;
7527;SDS011;3805;49.006;8.514;2023-05-19T11:11:20;4.53;;;2.90;;
7527;SDS011;3805;49.006;8.514;2023-05-19T11:14:09;4.63;;;3.80;;
7527;SDS011;3805;49.006;8.514;2023-05-19T11:16:58;4.73;;;3.20;;
7527;SDS011;3805;49.006;8.514;2023-05-19T11:19:51;5.13;;;3.60;;
7527;SDS011;3805;49.006;8.514;2023-05-19T11:22:40;3.77;;;3.30;;
7527;SDS011;3805;49.006;8.514;2023-05-19T11:25:40;3.90;;;2.93;;
7527;SDS011;3805;49.006;8.514;2023-05-19T11:28:30;3.67;;;3.10;;
7527;SDS011;3805;49.006;8.514;2023-05-19T11:31:19;3.50;;;3.00;;
7527;SDS011;3805;49.006;8.514;2023-05-19T11:34:09;7.63;;;3.30;;
7527;SDS011;3805;49.006;8.514;2023-05-19T11:36:57;4.80;;;3.87;;
7527;SDS011;3805;49.006;8.514;2023-05-19T11:39:46;5.30;;;3.80;;
7527;SDS011;3805;49.006;8.514;2023-05-19T11:42:36;3.40;;;3.03;;
7527;SDS011;3805;49.006;8.514;2023-05-19T11:45:25;4.47;;;2.90;;
7527;SDS011;3805;49.006;8.514;2023-05-19T11:48:13;3.70;;;2.93;;
7527;SDS011;3805;49.006;8.514;2023-05-19T11:51:04;4.90;;;3.40;;
7527;SDS011;3805;49.006;8.514;2023-05-19T11:53:53;7.97;;;3.30;;
7527;SDS011;3805;49.006;8.514;2023-05-19T11:56:42;4.50;;;3.07;;
7527;SDS011;3805;49.006;8.514;2023-05-19T11:59:32;5.03;;;3.00;;
7527;SDS011;3805;49.006;8.514;2023-05-19T12:02:22;3.50;;;3.10;;
7527;SDS011;3805;49.006;8.514;2023-05-19T12:05:16;3.30;;;2.93;;
7527;SDS011;3805;49.006;8.514;2023-05-19T12:08:05;7.00;;;3.40;;
7527;SDS011;3805;49.006;8.514;2023-05-19T12:10:54;5.10;;;3.27;;
7527;SDS011;3805;49.006;8.514;2023-05-19T12:13:43;3.70;;;3.40;;
7527;SDS011;3805;49.006;8.514;2023-05-19T12:16:33;3.70;;;3.23;;
7527;SDS011;3805;49.006;8.514;2023-05-19T12:19:22;7.13;;;3.17;;
7527;SDS011;3805;49.006;8.514;2023-05-19T12:22:12;7.17;;;4.20;;
7527;SDS011;3805;49.006;8.514;2023-05-19T12:25:02;3.70;;;2.93;;
7527;SDS011;3805;49.006;8.514;2023-05-19T12:27:55;5.60;;;3.27;;
7527;SDS011;3805;49.006;8.514;2023-05-19T12:30:46;4.27;;;3.30;;
7527;SDS011;3805;49.006;8.514;2023-05-19T12:33:36;3.53;;;3.23;;
7527;SDS011;3805;49.006;8.514;2023-05-19T12:36:25;4.13;;;3.43;;
7527;SDS011;3805;49.006;8.514;2023-05-19T12:39:14;4.30;;;3.27;;
7527;SDS011;3805;49.006;8.514;2023-05-19T12:42:06;3.93;;;3.63;;
7527;SDS011;3805;49.006;8.514;2023-05-19T12:44:56;4.50;;;3.00;;
7527;SDS011;3805;49.006;8.514;2023-05-19T12:47:47;5.57;;;3.23;;
7527;SDS011;3805;49.006;8.514;2023-05-19T12:50:37;5.20;;;3.70;;
7527;SDS011;3805;49.006;8.514;2023-05-19T12:53:26;4.10;;;3.70;;
7527;SDS011;3805;49.006;8.514;2023-05-19T12:56:14;9.07;;;3.40;;
7527;SDS011;3805;49.006;8.514;2023-05-19T12:59:03;4.83;;;3.40;;
7527;SDS011;3805;49.006;8.514;2023-05-19T13:01:55;4.70;;;3.93;;
7527;SDS011;3805;49.006;8.514;2023-05-19T13:04:44;4.87;;;3.33;;
7527;SDS011;3805;49.006;8.514;2023-05-19T13:07:34;4.80;;;3.20;;
7527;SDS011;3805;49.006;8.514;2023-05-19T13:10:23;4.60;;;3.93;;
7527;SDS011;3805;49.006;8.514;2023-05-19T13:13:13;5.53;;;3.30;;
7527;SDS011;3805;49.006;8.514;2023-05-19T13:16:01;5.93;;;3.50;;
7527;SDS011;3805;49.006;8.514;2023-05-19T13:18:50;7.73;;;3.63;;
7527;SDS011;3805;49.006;8.514;2023-05-19T13:21:39;8.60;;;3.87;;
7527;SDS011;3805;49.006;8.514;2023-05-19T13:24:29;4.47;;;3.97;;
7527;SDS011;3805;49.006;8.514;2023-05-19T13:27:18;4.00;;;3.40;;
7527;SDS011;3805;49.006;8.514;2023-05-19T13:30:07;4.20;;;3.73;;
7527;SDS011;3805;49.006;8.514;2023-05-19T13:32:56;3.77;;;3.30;;
7527;SDS011;3805;49.006;8.514;2023-05-19T13:35:44;6.10;;;4.03;;
7527;SDS011;3805;49.006;8.514;2023-05-19T13:38:33;8.27;;;4.00;;
7527;SDS011;3805;49.006;8.514;2023-05-19T13:41:23;5.70;;;3.90;;
7527;SDS011;3805;49.006;8.514;2023-05-19T13:44:12;6.27;;;3.87;;
7527;SDS011;3805;49.006;8.514;2023-05-19T13:47:01;3.83;;;3.53;;
7527;SDS011;3805;49.006;8.514;2023-05-19T13:49:50;4.70;;;3.60;;
7527;SDS011;3805;49.006;8.514;2023-05-19T13:52:39;5.23;;;3.83;;
7527;SDS011;3805;49.006;8.514;2023-05-19T13:55:27;4.17;;;3.60;;
7527;SDS011;3805;49.006;8.514;2023-05-19T13:58:17;5.70;;;4.37;;
7527;SDS011;3805;49.006;8.514;2023-05-19T14:01:06;8.80;;;3.90;;
7527;SDS011;3805;49.006;8.514;2023-05-19T14:03:55;4.30;;;3.80;;
7527;SDS011;3805;49.006;8.514;2023-05-19T14:06:44;4.23;;;3.60;;
7527;SDS011;3805;49.006;8.514;2023-05-19T14:09:32;5.03;;;3.80;;
7527;SDS011;3805;49.006;8.514;2023-05-19T14:12:21;5.50;;;3.73;;
7527;SDS011;3805;49.006;8.514;2023-05-19T14:15:27;4.57;;;4.17;;
7527;SDS011;3805;49.006;8.514;2023-05-19T14:18:15;4.43;;;3.23;;
7527;SDS011;3805;49.006;8.514;2023-05-19T14:21:04;5.10;;;3.60;;
7527;SDS011;3805;49.006;8.514;2023-05-19T14:23:53;7.13;;;3.20;;
7527;SDS011;3805;49.006;8.514;2023-05-19T14:26:41;3.83;;;3.43;;
7527;SDS011;3805;49.006;8.514;2023-05-19T14:29:30;5.60;;;4.13;;
7527;SDS011;3805;49.006;8.514;2023-05-19T14:32:20;3.50;;;3.20;;
7527;SDS011;3805;49.006;8.514;2023-05-19T14:35:09;4.60;;;4.20;;
7527;SDS011;3805;49.006;8.514;2023-05-19T14:37:58;7.97;;;4.27;;
7527;SDS011;3805;49.006;8.514;2023-05-19T14:40:46;4.33;;;3.63;;
7527;SDS011;3805;49.006;8.514;2023-05-19T14:43:35;5.87;;;3.70;;
7527;SDS011;3805;49.006;8.514;2023-05-19T14:46:24;3.43;;;2.77;;
7527;SDS011;3805;49.006;8.514;2023-05-19T14:49:13;3.97;;;3.57;;
7527;SDS011;3805;49.006;8.514;2023-05-19T14:52:02;4.37;;;3.97;;
7527;SDS011;3805;49.006;8.514;2023-05-19T14:54:51;7.20;;;3.77;;
7527;SDS011;3805;49.006;8.514;2023-05-19T14:57:40;7.47;;;3.10;;
7527;SDS011;3805;49.006;8.514;2023-05-19T15:00:29;4.83;;;3.80;;
7527;SDS011;3805;49.006;8.514;2023-05-19T15:03:17;7.17;;;3.90;;
7527;SDS011;3805;49.006;8.514;2023-05-19T15:06:08;4.90;;;3.23;;
7527;SDS011;3805;49.006;8.514;2023-05-19T15:08:57;4.13;;;3.00;;
7527;SDS011;3805;49.006;8.514;2023-05-19T15:11:46;4.53;;;3.23;;
7527;SDS011;3805;49.006;8.514;2023-05-19T15:14:34;4.80;;;4.23;;
7527;SDS011;3805;49.006;8.514;2023-05-19T15:17:23;4.53;;;3.60;;
7527;SDS011;3805;49.006;8.514;2023-05-19T15:20:11;5.00;;;3.80;;
7527;SDS011;3805;49.006;8.514;2023-05-19T15:23:01;8.50;;;4.37;;
7527;SDS011;3805;49.006;8.514;2023-05-19T15:25:50;5.17;;;3.70;;
7527;SDS011;3805;49.006;8.514;2023-05-19T15:28:39;6.27;;;3.57;;
7527;SDS011;3805;49.006;8.514;2023-05-19T15:31:27;4.17;;;3.77;;
7527;SDS011;3805;49.006;8.514;2023-05-19T15:34:16;6.87;;;3.87;;
7527;SDS011;3805;49.006;8.514;2023-05-19T15:37:04;4.20;;;3.17;;
7527;SDS011;3805;49.006;8.514;2023-05-19T15:39:54;5.33;;;3.80;;
7527;SDS011;3805;49.006;8.514;2023-05-19T15:42:43;6.00;;;3.40;;
7527;SDS011;3805;49.006;8.514;2023-05-19T15:45:31;5.13;;;3.43;;
7527;SDS011;3805;49.006;8.514;2023-05-19T15:48:20;6.60;;;3.30;;
7527;SDS011;3805;49.006;8.514;2023-05-19T15:51:08;6.37;;;3.60;;
7527;SDS011;3805;49.006;8.514;2023-05-19T15:53:57;5.27;;;2.83;;
7527;SDS011;3805;49.006;8.514;2023-05-19T15:56:47;6.43;;;3.50;;
7527;SDS011;3805;49.006;8.514;2023-05-19T15:59:36;4.30;;;3.40;;
7527;SDS011;3805;49.006;8.514;2023-05-19T16:02:24;3.27;;;2.97;;
7527;SDS011;3805;49.006;8.514;2023-05-19T16:05:13;10.10;;;3.20;;
7527;SDS011;3805;49.006;8.514;2023-05-19T16:08:02;6.70;;;3.53;;
7527;SDS011;3805;49.006;8.514;2023-05-19T16:10:54;4.23;;;3.13;;
7527;SDS011;3805;49.006;8.514;2023-05-19T16:13:44;3.40;;;3.10;;
7527;SDS011;3805;49.006;8.514;2023-05-19T16:16:33;6.37;;;3.67;;
7527;SDS011;3805;49.006;8.514;2023-05-19T16:19:22;3.97;;;2.70;;
7527;SDS011;3805;49.006;8.514;2023-05-19T16:22:11;3.60;;;3.03;;
7527;SDS011;3805;49.006;8.514;2023-05-19T16:24:59;4.93;;;3.33;;
7527;SDS011;3805;49.006;8.514;2023-05-19T16:27:48;3.90;;;3.17;;
7527;SDS011;3805;49.006;8.514;2023-05-19T16:30:38;5.57;;;3.30;;
7527;SDS011;3805;49.006;8.514;2023-05-19T16:33:26;4.57;;;2.90;;
7527;SDS011;3805;49.006;8.514;2023-05-19T16:36:16;5.13;;;2.97;;
7527;SDS011;3805;49.006;8.514;2023-05-19T16:39:04;3.87;;;3.50;;
7527;SDS011;3805;49.006;8.514;2023-05-19T16:41:53;7.20;;;3.43;;
7527;SDS011;3805;49.006;8.514;2023-05-19T16:44:41;3.80;;;3.50;;
7527;SDS011;3805;49.006;8.514;2023-05-19T16:47:31;3.80;;;3.50;;
7527;SDS011;3805;49.006;8.514;2023-05-19T16:50:20;3.93;;;3.00;;
7527;SDS011;3805;49.006;8.514;2023-05-19T16:53:08;5.40;;;3.80;;
7527;SDS011;3805;49.006;8.514;2023-05-19T16:55:57;3.50;;;3.20;;
7527;SDS011;3805;49.006;8.514;2023-05-19T16:58:46;4.63;;;3.20;;
7527;SDS011;3805;49.006;8.514;2023-05-19T17:01:35;4.00;;;3.60;;
7527;SDS011;3805;49.006;8.514;2023-05-19T17:04:24;4.07;;;3.50;;
7527;SDS011;3805;49.006;8.514;2023-05-19T17:07:16;5.30;;;3.30;;
7527;SDS011;3805;49.006;8.514;2023-05-19T17:10:05;6.23;;;2.53;;
7527;SDS011;3805;49.006;8.514;2023-05-19T17:12:54;4.53;;;2.83;;
7527;SDS011;3805;49.006;8.514;2023-05-19T17:15:43;3.77;;;3.20;;
7527;SDS011;3805;49.006;8.514;2023-05-19T17:18:32;3.20;;;2.90;;
7527;SDS011;3805;49.006;8.514;2023-05-19T17:21:22;4.83;;;3.30;;
7527;SDS011;3805;49.006;8.514;2023-05-19T17:24:11;4.03;;;3.07;;
7527;SDS011;3805;49.006;8.514;2023-05-19T17:26:59;3.20;;;2.90;;
7527;SDS011;3805;49.006;8.514;2023-05-19T17:29:48;3.10;;;2.80;;
7527;SDS011;3805;49.006;8.514;2023-05-19T17:32:37;5.73;;;2.97;;
7527;SDS011;3805;49.006;8.514;2023-05-19T17:35:26;3.53;;;3.23;;
7527;SDS011;3805;49.006;8.514;2023-05-19T17:38:16;7.53;;;4.27;;